sensor_id;sensor_type;location;lat;lon;timestamp;temperature;humidity
1225;DHT22;602;48.000;7.840;2022-09-09T00:00:25;19.30;99.90
1225;DHT22;602;48.000;7.840;2022-09-09T00:02:59;19.30;99.90
1225;DHT22;602;48.000;7.840;2022-09-09T00:05:32;19.40;99.90
1225;DHT22;602;48.000;7.840;2022-09-09T00:08:03;19.30;99.90
1225;DHT22;602;48.000;7.840;2022-09-09T00:10:34;19.30;99.90
1225;DHT22;602;48.000;7.840;2022-09-09T00:13:15;19.30;99.90
1225;DHT22;602;48.000;7.840;2022-09-09T00:15:54;19.30;99.90
1225;DHT22;602;48.000;7.840;2022-09-09T00:18:25;19.40;99.90
1225;DHT22;602;48.000;7.840;2022-09-09T00:20:58;19.40;99.90
1225;DHT22;602;48.000;7.840;2022-09-09T00:23:32;19.40;99.90
1225;DHT22;602;48.000;7.840;2022-09-09T00:26:04;19.40;99.90
1225;DHT22;602;48.000;7.840;2022-09-09T00:28:38;19.40;99.90
1225;DHT22;602;48.000;7.840;2022-09-09T00:31:12;19.30;99.90
1225;DHT22;602;48.000;7.840;2022-09-09T00:33:39;19.30;99.90
1225;DHT22;602;48.000;7.840;2022-09-09T00:36:13;19.30;99.90
1225;DHT22;602;48.000;7.840;2022-09-09T00:38:45;19.30;99.90
1225;DHT22;602;48.000;7.840;2022-09-09T00:41:17;19.30;99.90
1225;DHT22;602;48.000;7.840;2022-09-09T00:43:54;19.30;99.90
1225;DHT22;602;48.000;7.840;2022-09-09T00:46:37;19.30;99.90
1225;DHT22;602;48.000;7.840;2022-09-09T00:49:15;19.30;99.90
1225;DHT22;602;48.000;7.840;2022-09-09T00:51:50;19.40;99.90
1225;DHT22;602;48.000;7.840;2022-09-09T00:54:28;19.30;99.90
1225;DHT22;602;48.000;7.840;2022-09-09T00:57:07;19.40;99.90
1225;DHT22;602;48.000;7.840;2022-09-09T00:59:45;19.40;99.90
1225;DHT22;602;48.000;7.840;2022-09-09T01:02:21;19.40;99.90
1225;DHT22;602;48.000;7.840;2022-09-09T01:04:49;19.40;99.90
1225;DHT22;602;48.000;7.840;2022-09-09T01:07:17;19.40;99.90
1225;DHT22;602;48.000;7.840;2022-09-09T01:09:57;19.30;99.90
1225;DHT22;602;48.000;7.840;2022-09-09T01:12:27;19.30;99.90
1225;DHT22;602;48.000;7.840;2022-09-09T01:15:03;19.30;99.90
1225;DHT22;602;48.000;7.840;2022-09-09T01:17:39;19.30;99.90
1225;DHT22;602;48.000;7.840;2022-09-09T01:20:12;19.30;99.90
1225;DHT22;602;48.000;7.840;2022-09-09T01:22:47;19.40;99.90
1225;DHT22;602;48.000;7.840;2022-09-09T01:25:29;19.40;99.90
1225;DHT22;602;48.000;7.840;2022-09-09T01:28:01;19.40;99.90
1225;DHT22;602;48.000;7.840;2022-09-09T01:30:30;19.40;99.90
1225;DHT22;602;48.000;7.840;2022-09-09T01:32:58;19.40;99.90
1225;DHT22;602;48.000;7.840;2022-09-09T01:35:35;19.40;99.90
1225;DHT22;602;48.000;7.840;2022-09-09T01:38:04;19.40;99.90
1225;DHT22;602;48.000;7.840;2022-09-09T01:40:31;19.40;99.90
1225;DHT22;602;48.000;7.840;2022-09-09T01:43:00;19.20;99.90
1225;DHT22;602;48.000;7.840;2022-09-09T01:45:27;19.20;99.90
1225;DHT22;602;48.000;7.840;2022-09-09T01:47:53;19.20;99.90
1225;DHT22;602;48.000;7.840;2022-09-09T01:50:22;19.20;99.90
1225;DHT22;602;48.000;7.840;2022-09-09T01:52:52;19.20;99.90
1225;DHT22;602;48.000;7.840;2022-09-09T01:55:28;18.90;99.90
1225;DHT22;602;48.000;7.840;2022-09-09T01:58:04;18.90;99.90
1225;DHT22;602;48.000;7.840;2022-09-09T02:00:34;18.80;99.90
1225;DHT22;602;48.000;7.840;2022-09-09T02:03:08;18.80;99.90
1225;DHT22;602;48.000;7.840;2022-09-09T02:05:40;18.90;99.90
1225;DHT22;602;48.000;7.840;2022-09-09T02:08:09;18.90;99.90
1225;DHT22;602;48.000;7.840;2022-09-09T02:10:42;18.70;99.90
1225;DHT22;602;48.000;7.840;2022-09-09T02:13:13;18.60;99.90
1225;DHT22;602;48.000;7.840;2022-09-09T02:15:45;18.60;99.90
1225;DHT22;602;48.000;7.840;2022-09-09T02:18:15;18.50;99.90
1225;DHT22;602;48.000;7.840;2022-09-09T02:20:45;18.40;99.90
1225;DHT22;602;48.000;7.840;2022-09-09T02:23:13;18.50;99.90
1225;DHT22;602;48.000;7.840;2022-09-09T02:25:41;18.50;99.90
1225;DHT22;602;48.000;7.840;2022-09-09T02:28:11;18.60;99.90
1225;DHT22;602;48.000;7.840;2022-09-09T02:30:40;18.70;99.90
1225;DHT22;602;48.000;7.840;2022-09-09T02:33:08;18.70;99.90
1225;DHT22;602;48.000;7.840;2022-09-09T02:35:37;18.80;99.90
1225;DHT22;602;48.000;7.840;2022-09-09T02:38:08;18.90;99.90
1225;DHT22;602;48.000;7.840;2022-09-09T02:40:37;18.90;99.90
1225;DHT22;602;48.000;7.840;2022-09-09T02:43:03;18.90;99.90
1225;DHT22;602;48.000;7.840;2022-09-09T02:45:38;18.80;99.90
1225;DHT22;602;48.000;7.840;2022-09-09T02:48:14;18.80;99.90
1225;DHT22;602;48.000;7.840;2022-09-09T02:50:50;18.90;99.90
1225;DHT22;602;48.000;7.840;2022-09-09T02:53:24;19.00;99.90
1225;DHT22;602;48.000;7.840;2022-09-09T02:55:56;19.00;99.90
1225;DHT22;602;48.000;7.840;2022-09-09T02:58:25;19.00;99.90
1225;DHT22;602;48.000;7.840;2022-09-09T03:00:53;19.00;99.90
1225;DHT22;602;48.000;7.840;2022-09-09T03:03:20;18.90;99.90
1225;DHT22;602;48.000;7.840;2022-09-09T03:05:47;18.90;99.90
1225;DHT22;602;48.000;7.840;2022-09-09T03:08:15;18.90;99.90
1225;DHT22;602;48.000;7.840;2022-09-09T03:10:42;18.90;99.90
1225;DHT22;602;48.000;7.840;2022-09-09T03:13:09;18.90;99.90
1225;DHT22;602;48.000;7.840;2022-09-09T03:15:38;18.90;99.90
1225;DHT22;602;48.000;7.840;2022-09-09T03:18:06;19.00;99.90
1225;DHT22;602;48.000;7.840;2022-09-09T03:20:33;19.00;99.90
1225;DHT22;602;48.000;7.840;2022-09-09T03:23:00;19.00;99.90
1225;DHT22;602;48.000;7.840;2022-09-09T03:25:28;19.00;99.90
1225;DHT22;602;48.000;7.840;2022-09-09T03:27:55;19.00;99.90
1225;DHT22;602;48.000;7.840;2022-09-09T03:30:23;19.00;99.90
1225;DHT22;602;48.000;7.840;2022-09-09T03:32:50;19.10;99.90
1225;DHT22;602;48.000;7.840;2022-09-09T03:35:19;19.10;99.90
1225;DHT22;602;48.000;7.840;2022-09-09T03:37:46;19.00;99.90
1225;DHT22;602;48.000;7.840;2022-09-09T03:40:13;19.00;99.90
1225;DHT22;602;48.000;7.840;2022-09-09T03:42:40;19.10;99.90
1225;DHT22;602;48.000;7.840;2022-09-09T03:45:09;19.00;99.90
1225;DHT22;602;48.000;7.840;2022-09-09T03:47:37;19.00;99.90
1225;DHT22;602;48.000;7.840;2022-09-09T03:50:04;19.00;99.90
1225;DHT22;602;48.000;7.840;2022-09-09T03:52:36;19.10;99.90
1225;DHT22;602;48.000;7.840;2022-09-09T03:55:03;19.10;99.90
1225;DHT22;602;48.000;7.840;2022-09-09T03:57:30;19.20;99.90
1225;DHT22;602;48.000;7.840;2022-09-09T03:59:57;19.20;99.90
1225;DHT22;602;48.000;7.840;2022-09-09T04:02:26;19.10;99.90
1225;DHT22;602;48.000;7.840;2022-09-09T04:04:53;19.00;99.90
1225;DHT22;602;48.000;7.840;2022-09-09T04:07:20;18.90;99.90
1225;DHT22;602;48.000;7.840;2022-09-09T04:09:48;18.90;99.90
1225;DHT22;602;48.000;7.840;2022-09-09T04:12:15;19.00;99.90
1225;DHT22;602;48.000;7.840;2022-09-09T04:14:42;19.00;99.90
1225;DHT22;602;48.000;7.840;2022-09-09T04:17:09;19.00;99.90
1225;DHT22;602;48.000;7.840;2022-09-09T04:19:35;19.00;99.90
1225;DHT22;602;48.000;7.840;2022-09-09T04:22:02;19.00;99.90
1225;DHT22;602;48.000;7.840;2022-09-09T04:24:29;19.00;99.90
1225;DHT22;602;48.000;7.840;2022-09-09T04:26:57;19.00;99.90
1225;DHT22;602;48.000;7.840;2022-09-09T04:29:24;19.00;99.90
1225;DHT22;602;48.000;7.840;2022-09-09T04:31:51;19.00;99.90
1225;DHT22;602;48.000;7.840;2022-09-09T04:34:18;19.00;99.90
1225;DHT22;602;48.000;7.840;2022-09-09T04:36:45;19.00;99.90
1225;DHT22;602;48.000;7.840;2022-09-09T04:39:12;19.00;99.90
1225;DHT22;602;48.000;7.840;2022-09-09T04:41:40;19.10;99.90
1225;DHT22;602;48.000;7.840;2022-09-09T04:44:08;19.00;99.90
1225;DHT22;602;48.000;7.840;2022-09-09T04:46:35;19.00;99.90
1225;DHT22;602;48.000;7.840;2022-09-09T04:49:02;19.00;99.90
1225;DHT22;602;48.000;7.840;2022-09-09T04:51:29;19.00;99.90
1225;DHT22;602;48.000;7.840;2022-09-09T04:53:56;19.00;99.90
1225;DHT22;602;48.000;7.840;2022-09-09T04:56:23;19.00;99.90
1225;DHT22;602;48.000;7.840;2022-09-09T04:58:52;19.00;99.90
1225;DHT22;602;48.000;7.840;2022-09-09T05:01:22;18.90;99.90
1225;DHT22;602;48.000;7.840;2022-09-09T05:03:50;18.90;99.90
1225;DHT22;602;48.000;7.840;2022-09-09T05:06:19;18.90;99.90
1225;DHT22;602;48.000;7.840;2022-09-09T05:08:46;18.90;99.90
1225;DHT22;602;48.000;7.840;2022-09-09T05:11:16;19.00;99.90
1225;DHT22;602;48.000;7.840;2022-09-09T05:13:44;19.00;99.90
1225;DHT22;602;48.000;7.840;2022-09-09T05:16:11;19.00;99.90
1225;DHT22;602;48.000;7.840;2022-09-09T05:18:40;19.00;99.90
1225;DHT22;602;48.000;7.840;2022-09-09T05:21:08;19.00;99.90
1225;DHT22;602;48.000;7.840;2022-09-09T05:23:35;19.00;99.90
1225;DHT22;602;48.000;7.840;2022-09-09T05:26:03;19.00;99.90
1225;DHT22;602;48.000;7.840;2022-09-09T05:28:30;19.00;99.90
1225;DHT22;602;48.000;7.840;2022-09-09T05:30:58;19.00;99.90
1225;DHT22;602;48.000;7.840;2022-09-09T05:33:26;19.10;99.90
1225;DHT22;602;48.000;7.840;2022-09-09T05:35:58;19.10;99.90
1225;DHT22;602;48.000;7.840;2022-09-09T05:38:25;19.00;99.90
1225;DHT22;602;48.000;7.840;2022-09-09T05:40:52;19.10;99.90
1225;DHT22;602;48.000;7.840;2022-09-09T05:43:19;19.20;99.90
1225;DHT22;602;48.000;7.840;2022-09-09T05:45:46;19.20;99.90
1225;DHT22;602;48.000;7.840;2022-09-09T05:48:14;19.20;99.90
1225;DHT22;602;48.000;7.840;2022-09-09T05:50:41;19.10;99.90
1225;DHT22;602;48.000;7.840;2022-09-09T05:53:10;19.10;99.90
1225;DHT22;602;48.000;7.840;2022-09-09T05:55:36;19.10;99.90
1225;DHT22;602;48.000;7.840;2022-09-09T05:58:03;19.10;99.90
1225;DHT22;602;48.000;7.840;2022-09-09T06:00:30;19.10;99.90
1225;DHT22;602;48.000;7.840;2022-09-09T06:02:58;19.30;99.90
1225;DHT22;602;48.000;7.840;2022-09-09T06:05:25;19.30;99.90
1225;DHT22;602;48.000;7.840;2022-09-09T06:07:54;19.30;99.90
1225;DHT22;602;48.000;7.840;2022-09-09T06:10:22;19.40;99.90
1225;DHT22;602;48.000;7.840;2022-09-09T06:12:52;19.50;99.90
1225;DHT22;602;48.000;7.840;2022-09-09T06:15:19;19.40;99.90
1225;DHT22;602;48.000;7.840;2022-09-09T06:17:46;19.50;99.90
1225;DHT22;602;48.000;7.840;2022-09-09T06:20:13;19.50;99.90
1225;DHT22;602;48.000;7.840;2022-09-09T06:22:40;19.50;99.90
1225;DHT22;602;48.000;7.840;2022-09-09T06:25:08;19.50;99.90
1225;DHT22;602;48.000;7.840;2022-09-09T06:27:37;19.60;99.90
1225;DHT22;602;48.000;7.840;2022-09-09T06:30:05;19.70;99.90
1225;DHT22;602;48.000;7.840;2022-09-09T06:32:33;19.70;99.90
1225;DHT22;602;48.000;7.840;2022-09-09T06:35:03;19.70;99.90
1225;DHT22;602;48.000;7.840;2022-09-09T06:37:30;19.70;99.90
1225;DHT22;602;48.000;7.840;2022-09-09T06:39:57;19.70;99.90
1225;DHT22;602;48.000;7.840;2022-09-09T06:42:24;19.70;99.90
1225;DHT22;602;48.000;7.840;2022-09-09T06:44:52;19.80;99.90
1225;DHT22;602;48.000;7.840;2022-09-09T06:47:19;19.70;99.90
1225;DHT22;602;48.000;7.840;2022-09-09T06:49:45;19.70;99.90
1225;DHT22;602;48.000;7.840;2022-09-09T06:52:12;19.70;99.90
1225;DHT22;602;48.000;7.840;2022-09-09T06:54:39;19.70;99.90
1225;DHT22;602;48.000;7.840;2022-09-09T06:57:06;19.70;99.90
1225;DHT22;602;48.000;7.840;2022-09-09T06:59:33;19.70;99.90
1225;DHT22;602;48.000;7.840;2022-09-09T07:02:02;19.70;99.90
1225;DHT22;602;48.000;7.840;2022-09-09T07:04:29;19.90;99.90
1225;DHT22;602;48.000;7.840;2022-09-09T07:06:56;20.00;99.90
1225;DHT22;602;48.000;7.840;2022-09-09T07:09:24;20.20;99.90
1225;DHT22;602;48.000;7.840;2022-09-09T07:11:53;20.20;99.90
1225;DHT22;602;48.000;7.840;2022-09-09T07:14:20;20.50;99.90
1225;DHT22;602;48.000;7.840;2022-09-09T07:16:47;20.50;99.90
1225;DHT22;602;48.000;7.840;2022-09-09T07:19:16;20.60;99.90
1225;DHT22;602;48.000;7.840;2022-09-09T07:21:43;20.70;99.90
1225;DHT22;602;48.000;7.840;2022-09-09T07:24:11;20.90;99.90
1225;DHT22;602;48.000;7.840;2022-09-09T07:26:38;21.20;99.90
1225;DHT22;602;48.000;7.840;2022-09-09T07:29:06;21.50;99.90
1225;DHT22;602;48.000;7.840;2022-09-09T07:31:34;21.50;99.90
1225;DHT22;602;48.000;7.840;2022-09-09T07:34:02;21.60;99.90
1225;DHT22;602;48.000;7.840;2022-09-09T07:36:32;21.60;99.90
1225;DHT22;602;48.000;7.840;2022-09-09T07:39:01;21.70;99.90
1225;DHT22;602;48.000;7.840;2022-09-09T07:41:31;21.90;99.90
1225;DHT22;602;48.000;7.840;2022-09-09T07:44:03;21.90;99.90
1225;DHT22;602;48.000;7.840;2022-09-09T07:46:30;21.80;99.90
1225;DHT22;602;48.000;7.840;2022-09-09T07:48:57;21.80;99.90
1225;DHT22;602;48.000;7.840;2022-09-09T07:51:25;21.90;99.90
1225;DHT22;602;48.000;7.840;2022-09-09T07:53:56;21.90;99.90
1225;DHT22;602;48.000;7.840;2022-09-09T07:56:24;22.00;99.90
1225;DHT22;602;48.000;7.840;2022-09-09T07:58:53;21.90;99.90
1225;DHT22;602;48.000;7.840;2022-09-09T08:01:23;21.70;99.90
1225;DHT22;602;48.000;7.840;2022-09-09T08:03:54;21.80;99.90
1225;DHT22;602;48.000;7.840;2022-09-09T08:06:22;21.50;99.90
1225;DHT22;602;48.000;7.840;2022-09-09T08:08:50;21.50;99.90
1225;DHT22;602;48.000;7.840;2022-09-09T08:11:19;21.70;99.90
1225;DHT22;602;48.000;7.840;2022-09-09T08:13:46;22.00;99.90
1225;DHT22;602;48.000;7.840;2022-09-09T08:16:15;22.30;99.90
1225;DHT22;602;48.000;7.840;2022-09-09T08:18:42;22.50;99.90
1225;DHT22;602;48.000;7.840;2022-09-09T08:21:11;22.50;99.90
1225;DHT22;602;48.000;7.840;2022-09-09T08:23:39;22.70;99.90
1225;DHT22;602;48.000;7.840;2022-09-09T08:26:09;22.90;99.90
1225;DHT22;602;48.000;7.840;2022-09-09T08:28:38;23.10;99.90
1225;DHT22;602;48.000;7.840;2022-09-09T08:31:11;23.10;99.90
1225;DHT22;602;48.000;7.840;2022-09-09T08:33:38;23.30;99.90
1225;DHT22;602;48.000;7.840;2022-09-09T08:36:06;23.40;99.90
1225;DHT22;602;48.000;7.840;2022-09-09T08:38:34;23.60;99.90
1225;DHT22;602;48.000;7.840;2022-09-09T08:41:12;24.00;99.90
1225;DHT22;602;48.000;7.840;2022-09-09T08:43:44;24.10;99.90
1225;DHT22;602;48.000;7.840;2022-09-09T08:46:16;24.20;99.90
1225;DHT22;602;48.000;7.840;2022-09-09T08:48:52;24.50;99.90
1225;DHT22;602;48.000;7.840;2022-09-09T08:51:26;24.60;99.90
1225;DHT22;602;48.000;7.840;2022-09-09T08:53:54;24.80;99.90
1225;DHT22;602;48.000;7.840;2022-09-09T08:56:26;24.50;99.90
1225;DHT22;602;48.000;7.840;2022-09-09T08:58:56;24.40;99.90
1225;DHT22;602;48.000;7.840;2022-09-09T09:01:51;24.30;99.90
1225;DHT22;602;48.000;7.840;2022-09-09T09:07:21;24.10;99.90
1225;DHT22;602;48.000;7.840;2022-09-09T09:09:57;24.10;99.90
1225;DHT22;602;48.000;7.840;2022-09-09T09:12:39;24.00;99.90
1225;DHT22;602;48.000;7.840;2022-09-09T09:15:14;23.80;99.90
1225;DHT22;602;48.000;7.840;2022-09-09T09:17:43;23.80;99.90
1225;DHT22;602;48.000;7.840;2022-09-09T09:20:12;23.90;99.90
1225;DHT22;602;48.000;7.840;2022-09-09T09:22:45;24.00;99.90
1225;DHT22;602;48.000;7.840;2022-09-09T09:25:17;24.10;99.90
1225;DHT22;602;48.000;7.840;2022-09-09T09:27:49;24.30;99.90
1225;DHT22;602;48.000;7.840;2022-09-09T09:30:26;24.40;99.90
1225;DHT22;602;48.000;7.840;2022-09-09T09:32:56;24.60;99.90
1225;DHT22;602;48.000;7.840;2022-09-09T09:35:25;24.50;99.90
1225;DHT22;602;48.000;7.840;2022-09-09T09:37:52;24.70;99.90
1225;DHT22;602;48.000;7.840;2022-09-09T09:40:21;24.80;99.90
1225;DHT22;602;48.000;7.840;2022-09-09T09:42:50;24.90;99.90
1225;DHT22;602;48.000;7.840;2022-09-09T09:45:28;25.00;99.90
1225;DHT22;602;48.000;7.840;2022-09-09T09:48:01;25.10;99.90
1225;DHT22;602;48.000;7.840;2022-09-09T09:50:30;25.50;99.90
1225;DHT22;602;48.000;7.840;2022-09-09T09:52:59;25.70;99.90
1225;DHT22;602;48.000;7.840;2022-09-09T09:55:29;26.00;99.90
1225;DHT22;602;48.000;7.840;2022-09-09T09:58:02;26.00;99.90
1225;DHT22;602;48.000;7.840;2022-09-09T10:00:31;26.10;99.90
1225;DHT22;602;48.000;7.840;2022-09-09T10:03:00;26.40;99.90
1225;DHT22;602;48.000;7.840;2022-09-09T10:05:29;26.50;99.90
1225;DHT22;602;48.000;7.840;2022-09-09T10:08:04;26.60;99.90
1225;DHT22;602;48.000;7.840;2022-09-09T10:10:45;26.80;99.90
1225;DHT22;602;48.000;7.840;2022-09-09T10:13:18;27.10;99.90
1225;DHT22;602;48.000;7.840;2022-09-09T10:15:57;27.20;99.90
1225;DHT22;602;48.000;7.840;2022-09-09T10:18:38;27.40;99.90
1225;DHT22;602;48.000;7.840;2022-09-09T10:21:17;27.50;99.90
1225;DHT22;602;48.000;7.840;2022-09-09T10:24:02;27.70;99.90
1225;DHT22;602;48.000;7.840;2022-09-09T10:26:40;27.60;99.90
1225;DHT22;602;48.000;7.840;2022-09-09T10:29:30;27.60;99.90
1225;DHT22;602;48.000;7.840;2022-09-09T10:32:10;27.70;99.90
1225;DHT22;602;48.000;7.840;2022-09-09T10:34:56;27.50;99.90
1225;DHT22;602;48.000;7.840;2022-09-09T10:37:36;27.50;99.90
1225;DHT22;602;48.000;7.840;2022-09-09T10:40:20;27.10;99.90
1225;DHT22;602;48.000;7.840;2022-09-09T10:42:52;26.50;99.90
1225;DHT22;602;48.000;7.840;2022-09-09T10:45:27;26.20;99.90
1225;DHT22;602;48.000;7.840;2022-09-09T10:48:08;25.80;99.90
1225;DHT22;602;48.000;7.840;2022-09-09T10:50:52;25.80;99.90
1225;DHT22;602;48.000;7.840;2022-09-09T10:53:28;25.60;99.90
1225;DHT22;602;48.000;7.840;2022-09-09T10:56:03;25.40;99.90
1225;DHT22;602;48.000;7.840;2022-09-09T10:58:36;25.90;99.90
1225;DHT22;602;48.000;7.840;2022-09-09T11:01:10;26.10;99.90
1225;DHT22;602;48.000;7.840;2022-09-09T11:03:41;26.40;99.90
1225;DHT22;602;48.000;7.840;2022-09-09T11:06:13;26.30;99.90
1225;DHT22;602;48.000;7.840;2022-09-09T11:08:42;26.30;99.90
1225;DHT22;602;48.000;7.840;2022-09-09T11:11:12;26.20;99.90
1225;DHT22;602;48.000;7.840;2022-09-09T11:13:46;25.90;99.90
1225;DHT22;602;48.000;7.840;2022-09-09T11:16:22;25.90;99.90
1225;DHT22;602;48.000;7.840;2022-09-09T11:18:57;25.80;99.90
1225;DHT22;602;48.000;7.840;2022-09-09T11:21:28;25.70;99.90
1225;DHT22;602;48.000;7.840;2022-09-09T11:23:59;25.40;99.90
1225;DHT22;602;48.000;7.840;2022-09-09T11:26:31;25.20;99.90
1225;DHT22;602;48.000;7.840;2022-09-09T11:29:14;25.10;99.90
1225;DHT22;602;48.000;7.840;2022-09-09T11:31:50;25.00;99.90
1225;DHT22;602;48.000;7.840;2022-09-09T11:34:43;24.70;99.90
1225;DHT22;602;48.000;7.840;2022-09-09T11:37:37;24.70;99.90
1225;DHT22;602;48.000;7.840;2022-09-09T11:40:14;25.00;99.90
1225;DHT22;602;48.000;7.840;2022-09-09T11:42:43;25.50;99.90
1225;DHT22;602;48.000;7.840;2022-09-09T11:45:15;25.80;99.90
1225;DHT22;602;48.000;7.840;2022-09-09T11:47:52;25.70;99.90
1225;DHT22;602;48.000;7.840;2022-09-09T11:50:31;26.00;99.90
1225;DHT22;602;48.000;7.840;2022-09-09T11:53:22;26.40;99.90
1225;DHT22;602;48.000;7.840;2022-09-09T11:56:11;26.40;99.90
1225;DHT22;602;48.000;7.840;2022-09-09T11:58:43;26.20;99.90
1225;DHT22;602;48.000;7.840;2022-09-09T12:04:28;26.00;99.90
1225;DHT22;602;48.000;7.840;2022-09-09T12:07:00;25.90;99.90
1225;DHT22;602;48.000;7.840;2022-09-09T12:09:43;26.10;99.90
1225;DHT22;602;48.000;7.840;2022-09-09T12:12:30;26.20;99.90
1225;DHT22;602;48.000;7.840;2022-09-09T12:15:16;26.10;99.90
1225;DHT22;602;48.000;7.840;2022-09-09T12:17:47;26.10;99.90
1225;DHT22;602;48.000;7.840;2022-09-09T12:20:17;26.10;99.90
1225;DHT22;602;48.000;7.840;2022-09-09T12:23:04;26.10;99.90
1225;DHT22;602;48.000;7.840;2022-09-09T12:25:45;25.90;99.90
1225;DHT22;602;48.000;7.840;2022-09-09T12:28:17;25.70;99.90
1225;DHT22;602;48.000;7.840;2022-09-09T12:30:49;25.60;99.90
1225;DHT22;602;48.000;7.840;2022-09-09T12:33:19;25.50;99.90
1225;DHT22;602;48.000;7.840;2022-09-09T12:35:52;25.30;99.90
1225;DHT22;602;48.000;7.840;2022-09-09T12:38:27;25.50;99.90
1225;DHT22;602;48.000;7.840;2022-09-09T12:40:57;25.60;99.90
1225;DHT22;602;48.000;7.840;2022-09-09T12:43:25;25.70;99.90
1225;DHT22;602;48.000;7.840;2022-09-09T12:45:55;25.80;99.90
1225;DHT22;602;48.000;7.840;2022-09-09T12:48:28;25.80;99.90
1225;DHT22;602;48.000;7.840;2022-09-09T12:50:58;25.60;99.90
1225;DHT22;602;48.000;7.840;2022-09-09T12:53:29;25.50;99.90
1225;DHT22;602;48.000;7.840;2022-09-09T12:56:00;25.30;99.90
1225;DHT22;602;48.000;7.840;2022-09-09T12:58:29;25.20;99.90
1225;DHT22;602;48.000;7.840;2022-09-09T13:00:59;25.30;99.90
1225;DHT22;602;48.000;7.840;2022-09-09T13:03:27;25.20;99.90
1225;DHT22;602;48.000;7.840;2022-09-09T13:05:58;25.00;99.90
1225;DHT22;602;48.000;7.840;2022-09-09T13:08:27;24.80;99.90
1225;DHT22;602;48.000;7.840;2022-09-09T13:10:57;24.70;99.90
1225;DHT22;602;48.000;7.840;2022-09-09T13:13:27;24.60;99.90
1225;DHT22;602;48.000;7.840;2022-09-09T13:15:56;24.70;99.90
1225;DHT22;602;48.000;7.840;2022-09-09T13:18:29;24.50;99.90
1225;DHT22;602;48.000;7.840;2022-09-09T13:20:57;24.50;99.90
1225;DHT22;602;48.000;7.840;2022-09-09T13:23:29;24.50;99.90
1225;DHT22;602;48.000;7.840;2022-09-09T13:25:58;24.10;99.90
1225;DHT22;602;48.000;7.840;2022-09-09T13:28:26;23.70;99.90
1225;DHT22;602;48.000;7.840;2022-09-09T13:30:58;23.40;99.90
1225;DHT22;602;48.000;7.840;2022-09-09T13:33:31;23.20;99.90
1225;DHT22;602;48.000;7.840;2022-09-09T13:36:00;23.00;99.90
1225;DHT22;602;48.000;7.840;2022-09-09T13:38:32;23.00;99.90
1225;DHT22;602;48.000;7.840;2022-09-09T13:41:02;22.80;99.90
1225;DHT22;602;48.000;7.840;2022-09-09T13:43:31;22.70;99.90
1225;DHT22;602;48.000;7.840;2022-09-09T13:45:59;22.50;99.90
1225;DHT22;602;48.000;7.840;2022-09-09T13:48:27;22.40;99.90
1225;DHT22;602;48.000;7.840;2022-09-09T13:51:00;22.60;99.90
1225;DHT22;602;48.000;7.840;2022-09-09T13:53:30;22.60;99.90
1225;DHT22;602;48.000;7.840;2022-09-09T13:55:57;22.60;99.90
1225;DHT22;602;48.000;7.840;2022-09-09T13:58:25;22.70;99.90
1225;DHT22;602;48.000;7.840;2022-09-09T14:00:53;22.70;99.90
1225;DHT22;602;48.000;7.840;2022-09-09T14:03:20;22.70;99.90
1225;DHT22;602;48.000;7.840;2022-09-09T14:05:48;22.50;99.90
1225;DHT22;602;48.000;7.840;2022-09-09T14:08:24;22.50;99.90
1225;DHT22;602;48.000;7.840;2022-09-09T14:10:53;22.60;99.90
1225;DHT22;602;48.000;7.840;2022-09-09T14:13:22;22.70;99.90
1225;DHT22;602;48.000;7.840;2022-09-09T14:15:50;22.70;99.90
1225;DHT22;602;48.000;7.840;2022-09-09T14:18:17;22.70;99.90
1225;DHT22;602;48.000;7.840;2022-09-09T14:20:44;22.70;99.90
1225;DHT22;602;48.000;7.840;2022-09-09T14:23:11;22.70;99.90
1225;DHT22;602;48.000;7.840;2022-09-09T14:25:40;22.70;99.90
1225;DHT22;602;48.000;7.840;2022-09-09T14:28:11;22.70;99.90
1225;DHT22;602;48.000;7.840;2022-09-09T14:30:39;22.60;99.90
1225;DHT22;602;48.000;7.840;2022-09-09T14:33:07;22.60;99.90
1225;DHT22;602;48.000;7.840;2022-09-09T14:35:34;22.60;99.90
1225;DHT22;602;48.000;7.840;2022-09-09T14:38:02;22.70;99.90
1225;DHT22;602;48.000;7.840;2022-09-09T14:40:30;22.60;99.90
1225;DHT22;602;48.000;7.840;2022-09-09T14:42:57;22.70;99.90
1225;DHT22;602;48.000;7.840;2022-09-09T14:45:26;22.70;99.90
1225;DHT22;602;48.000;7.840;2022-09-09T14:47:53;22.70;99.90
1225;DHT22;602;48.000;7.840;2022-09-09T14:50:20;22.80;99.90
1225;DHT22;602;48.000;7.840;2022-09-09T14:52:48;22.90;99.90
1225;DHT22;602;48.000;7.840;2022-09-09T14:55:16;22.80;99.90
1225;DHT22;602;48.000;7.840;2022-09-09T14:57:43;22.90;99.90
1225;DHT22;602;48.000;7.840;2022-09-09T15:00:11;22.80;99.90
1225;DHT22;602;48.000;7.840;2022-09-09T15:02:42;22.70;99.90
1225;DHT22;602;48.000;7.840;2022-09-09T15:05:11;22.70;99.90
1225;DHT22;602;48.000;7.840;2022-09-09T15:07:38;22.70;99.90
1225;DHT22;602;48.000;7.840;2022-09-09T15:10:06;22.80;99.90
1225;DHT22;602;48.000;7.840;2022-09-09T15:12:33;22.80;99.90
1225;DHT22;602;48.000;7.840;2022-09-09T15:15:01;22.80;99.90
1225;DHT22;602;48.000;7.840;2022-09-09T15:17:29;22.70;99.90
1225;DHT22;602;48.000;7.840;2022-09-09T15:19:57;22.70;99.90
1225;DHT22;602;48.000;7.840;2022-09-09T15:22:24;22.80;99.90
1225;DHT22;602;48.000;7.840;2022-09-09T15:24:51;22.80;99.90
1225;DHT22;602;48.000;7.840;2022-09-09T15:27:18;22.80;99.90
1225;DHT22;602;48.000;7.840;2022-09-09T15:29:45;22.60;99.90
1225;DHT22;602;48.000;7.840;2022-09-09T15:32:13;22.50;99.90
1225;DHT22;602;48.000;7.840;2022-09-09T15:34:40;22.50;99.90
1225;DHT22;602;48.000;7.840;2022-09-09T15:37:11;22.40;99.90
1225;DHT22;602;48.000;7.840;2022-09-09T15:39:39;22.40;99.90
1225;DHT22;602;48.000;7.840;2022-09-09T15:42:07;22.40;99.90
1225;DHT22;602;48.000;7.840;2022-09-09T15:44:40;22.40;99.90
1225;DHT22;602;48.000;7.840;2022-09-09T15:47:11;22.40;99.90
1225;DHT22;602;48.000;7.840;2022-09-09T15:49:44;22.40;99.90
1225;DHT22;602;48.000;7.840;2022-09-09T15:52:12;22.40;99.90
1225;DHT22;602;48.000;7.840;2022-09-09T15:54:39;22.50;99.90
1225;DHT22;602;48.000;7.840;2022-09-09T15:57:12;22.50;99.90
1225;DHT22;602;48.000;7.840;2022-09-09T15:59:39;22.50;99.90
1225;DHT22;602;48.000;7.840;2022-09-09T16:02:06;22.60;99.90
1225;DHT22;602;48.000;7.840;2022-09-09T16:04:33;22.60;99.90
1225;DHT22;602;48.000;7.840;2022-09-09T16:07:04;22.60;99.90
1225;DHT22;602;48.000;7.840;2022-09-09T16:09:35;22.60;99.90
1225;DHT22;602;48.000;7.840;2022-09-09T16:12:03;22.50;99.90
1225;DHT22;602;48.000;7.840;2022-09-09T16:14:33;22.40;99.90
1225;DHT22;602;48.000;7.840;2022-09-09T16:17:01;22.20;99.90
1225;DHT22;602;48.000;7.840;2022-09-09T16:19:28;22.10;99.90
1225;DHT22;602;48.000;7.840;2022-09-09T16:21:55;21.90;99.90
1225;DHT22;602;48.000;7.840;2022-09-09T16:24:22;21.70;99.90
1225;DHT22;602;48.000;7.840;2022-09-09T16:26:52;21.40;99.90
1225;DHT22;602;48.000;7.840;2022-09-09T16:29:21;21.20;99.90
1225;DHT22;602;48.000;7.840;2022-09-09T16:31:48;21.10;99.90
1225;DHT22;602;48.000;7.840;2022-09-09T16:34:17;21.10;99.90
1225;DHT22;602;48.000;7.840;2022-09-09T16:36:44;21.00;99.90
1225;DHT22;602;48.000;7.840;2022-09-09T16:39:12;20.90;99.90
1225;DHT22;602;48.000;7.840;2022-09-09T16:41:41;20.90;99.90
1225;DHT22;602;48.000;7.840;2022-09-09T16:44:10;20.80;99.90